sensor_id;sensor_type;location;lat;lon;timestamp;pressure;altitude;pressure_sealevel;temperature;humidity
64298;BME280;50639;53.270;7.956;2023-02-04T00:01:23;106536.81;;;6.67;100.00
64298;BME280;50639;53.270;7.956;2023-02-04T00:03:48;106682.94;;;6.71;100.00
64298;BME280;50639;53.270;7.956;2023-02-04T00:06:13;106435.63;;;6.55;100.00
64298;BME280;50639;53.270;7.956;2023-02-04T00:08:39;106364.63;;;6.48;100.00
64298;BME280;50639;53.270;7.956;2023-02-04T00:11:04;106415.44;;;6.48;100.00
64298;BME280;50639;53.270;7.956;2023-02-04T00:13:30;106583.75;;;6.54;100.00
64298;BME280;50639;53.270;7.956;2023-02-04T00:15:55;106521.41;;;6.52;100.00
64298;BME280;50639;53.270;7.956;2023-02-04T00:18:20;106503.59;;;6.51;100.00
64298;BME280;50639;53.270;7.956;2023-02-04T00:20:46;106566.94;;;6.51;100.00
64298;BME280;50639;53.270;7.956;2023-02-04T00:23:11;106490.41;;;6.47;100.00
64298;BME280;50639;53.270;7.956;2023-02-04T00:25:36;106407.72;;;6.41;100.00
64298;BME280;50639;53.270;7.956;2023-02-04T00:28:02;106297.47;;;6.34;100.00
64298;BME280;50639;53.270;7.956;2023-02-04T00:30:29;106350.97;;;6.34;100.00
64298;BME280;50639;53.270;7.956;2023-02-04T00:32:55;106488.09;;;6.38;100.00
64298;BME280;50639;53.270;7.956;2023-02-04T00:35:22;106535.28;;;6.40;100.00
64298;BME280;50639;53.270;7.956;2023-02-04T00:37:48;106496.19;;;6.36;100.00
64298;BME280;50639;53.270;7.956;2023-02-04T00:40:14;106465.16;;;6.32;100.00
64298;BME280;50639;53.270;7.956;2023-02-04T00:42:40;106475.00;;;6.32;100.00
64298;BME280;50639;53.270;7.956;2023-02-04T00:45:07;106264.25;;;6.20;100.00
64298;BME280;50639;53.270;7.956;2023-02-04T00:47:32;106219.94;;;6.14;100.00
64298;BME280;50639;53.270;7.956;2023-02-04T00:49:58;106349.88;;;6.18;100.00
64298;BME280;50639;53.270;7.956;2023-02-04T00:52:23;106278.75;;;6.14;100.00
64298;BME280;50639;53.270;7.956;2023-02-04T00:54:49;106333.16;;;6.13;100.00
64298;BME280;50639;53.270;7.956;2023-02-04T00:57:14;106333.28;;;6.10;100.00
64298;BME280;50639;53.270;7.956;2023-02-04T00:59:40;106240.13;;;6.01;100.00
64298;BME280;50639;53.270;7.956;2023-02-04T01:02:05;106112.97;;;5.96;100.00
64298;BME280;50639;53.270;7.956;2023-02-04T01:04:31;106197.63;;;5.95;100.00
64298;BME280;50639;53.270;7.956;2023-02-04T01:06:56;106348.91;;;5.99;100.00
64298;BME280;50639;53.270;7.956;2023-02-04T01:09:23;106415.66;;;6.01;100.00
64298;BME280;50639;53.270;7.956;2023-02-04T01:11:48;106097.41;;;5.85;100.00
64298;BME280;50639;53.270;7.956;2023-02-04T01:14:16;105926.00;;;5.74;100.00
64298;BME280;50639;53.270;7.956;2023-02-04T01:16:42;105952.88;;;5.71;100.00
64298;BME280;50639;53.270;7.956;2023-02-04T01:19:10;106119.22;;;5.74;100.00
64298;BME280;50639;53.270;7.956;2023-02-04T01:21:36;106057.94;;;5.71;100.00
64298;BME280;50639;53.270;7.956;2023-02-04T01:24:04;106215.28;;;5.77;100.00
64298;BME280;50639;53.270;7.956;2023-02-04T01:26:31;106454.56;;;5.86;100.00
64298;BME280;50639;53.270;7.956;2023-02-04T01:29:04;106797.97;;;5.99;100.00
64298;BME280;50639;53.270;7.956;2023-02-04T01:31:29;106915.41;;;6.05;100.00
64298;BME280;50639;53.270;7.956;2023-02-04T01:33:57;106868.22;;;6.04;100.00
64298;BME280;50639;53.270;7.956;2023-02-04T01:36:28;106616.44;;;5.93;100.00
64298;BME280;50639;53.270;7.956;2023-02-04T01:38:56;106717.78;;;5.99;100.00
64298;BME280;50639;53.270;7.956;2023-02-04T01:41:22;106452.72;;;5.88;100.00
64298;BME280;50639;53.270;7.956;2023-02-04T01:43:50;106001.03;;;5.69;100.00
64298;BME280;50639;53.270;7.956;2023-02-04T01:46:16;106118.50;;;5.71;100.00
64298;BME280;50639;53.270;7.956;2023-02-04T01:48:45;106104.34;;;5.69;100.00
64298;BME280;50639;53.270;7.956;2023-02-04T01:51:13;106081.22;;;5.68;100.00
64298;BME280;50639;53.270;7.956;2023-02-04T01:53:40;106113.25;;;5.68;100.00
64298;BME280;50639;53.270;7.956;2023-02-04T01:56:14;106220.88;;;5.71;100.00
64298;BME280;50639;53.270;7.956;2023-02-04T01:58:42;106205.69;;;5.72;100.00
64298;BME280;50639;53.270;7.956;2023-02-04T02:01:31;106173.72;;;5.70;100.00
64298;BME280;50639;53.270;7.956;2023-02-04T02:03:57;105910.81;;;5.56;100.00
64298;BME280;50639;53.270;7.956;2023-02-04T02:06:28;106014.84;;;5.59;100.00
64298;BME280;50639;53.270;7.956;2023-02-04T02:08:54;105830.19;;;5.48;100.00
64298;BME280;50639;53.270;7.956;2023-02-04T02:11:21;105856.91;;;5.48;100.00
64298;BME280;50639;53.270;7.956;2023-02-04T02:14:11;105748.69;;;5.41;100.00
64298;BME280;50639;53.270;7.956;2023-02-04T02:16:37;105737.19;;;5.39;100.00
64298;BME280;50639;53.270;7.956;2023-02-04T02:19:04;105668.09;;;5.33;100.00
64298;BME280;50639;53.270;7.956;2023-02-04T02:22:05;105505.09;;;5.19;100.00
64298;BME280;50639;53.270;7.956;2023-02-04T02:24:38;105429.13;;;5.08;100.00
64298;BME280;50639;53.270;7.956;2023-02-04T02:27:08;105520.66;;;5.11;100.00
64298;BME280;50639;53.270;7.956;2023-02-04T02:29:36;105513.66;;;5.08;100.00
64298;BME280;50639;53.270;7.956;2023-02-04T02:32:07;105677.91;;;5.14;100.00
64298;BME280;50639;53.270;7.956;2023-02-04T02:34:33;105594.50;;;5.10;100.00
64298;BME280;50639;53.270;7.956;2023-02-04T02:37:01;105579.47;;;5.07;100.00
64298;BME280;50639;53.270;7.956;2023-02-04T02:39:29;105692.22;;;5.13;100.00
64298;BME280;50639;53.270;7.956;2023-02-04T02:41:56;105733.03;;;5.15;100.00
64298;BME280;50639;53.270;7.956;2023-02-04T02:44:26;105775.66;;;5.16;100.00
64298;BME280;50639;53.270;7.956;2023-02-04T02:46:56;105778.34;;;5.16;100.00
64298;BME280;50639;53.270;7.956;2023-02-04T02:49:21;105552.88;;;5.06;100.00
64298;BME280;50639;53.270;7.956;2023-02-04T02:51:47;105495.38;;;5.00;100.00
64298;BME280;50639;53.270;7.956;2023-02-04T02:56:54;105496.38;;;4.98;100.00
64298;BME280;50639;53.270;7.956;2023-02-04T02:59:22;105452.13;;;4.94;100.00
64298;BME280;50639;53.270;7.956;2023-02-04T03:01:51;105375.94;;;4.88;100.00
64298;BME280;50639;53.270;7.956;2023-02-04T03:04:24;105370.75;;;4.85;100.00
64298;BME280;50639;53.270;7.956;2023-02-04T03:06:55;105401.91;;;4.85;100.00
64298;BME280;50639;53.270;7.956;2023-02-04T03:09:22;105315.06;;;4.79;100.00
64298;BME280;50639;53.270;7.956;2023-02-04T03:11:52;105200.19;;;4.67;100.00
64298;BME280;50639;53.270;7.956;2023-02-04T03:14:18;105168.63;;;4.59;100.00
64298;BME280;50639;53.270;7.956;2023-02-04T03:16:46;105289.38;;;4.61;100.00
64298;BME280;50639;53.270;7.956;2023-02-04T03:19:18;105181.16;;;4.57;100.00
64298;BME280;50639;53.270;7.956;2023-02-04T03:21:55;105015.13;;;4.40;100.00
64298;BME280;50639;53.270;7.956;2023-02-04T03:24:21;105107.34;;;4.42;100.00
64298;BME280;50639;53.270;7.956;2023-02-04T03:26:49;105190.59;;;4.47;100.00
64298;BME280;50639;53.270;7.956;2023-02-04T03:29:15;105110.09;;;4.41;100.00
64298;BME280;50639;53.270;7.956;2023-02-04T03:31:40;105258.94;;;4.48;100.00
64298;BME280;50639;53.270;7.956;2023-02-04T03:34:06;105127.84;;;4.42;100.00
64298;BME280;50639;53.270;7.956;2023-02-04T03:36:32;105101.34;;;4.39;100.00
64298;BME280;50639;53.270;7.956;2023-02-04T03:38:58;105296.25;;;4.48;100.00
64298;BME280;50639;53.270;7.956;2023-02-04T03:41:23;105534.66;;;4.61;100.00
64298;BME280;50639;53.270;7.956;2023-02-04T03:43:49;105612.56;;;4.68;100.00
64298;BME280;50639;53.270;7.956;2023-02-04T03:46:15;105624.91;;;4.70;100.00
64298;BME280;50639;53.270;7.956;2023-02-04T03:48:40;105653.28;;;4.71;100.00
64298;BME280;50639;53.270;7.956;2023-02-04T03:51:06;105688.63;;;4.76;100.00
64298;BME280;50639;53.270;7.956;2023-02-04T03:53:31;105660.22;;;4.75;100.00
64298;BME280;50639;53.270;7.956;2023-02-04T03:55:57;105550.25;;;4.70;100.00
64298;BME280;50639;53.270;7.956;2023-02-04T03:58:23;105513.91;;;4.68;100.00
64298;BME280;50639;53.270;7.956;2023-02-04T04:00:48;105450.91;;;4.65;100.00
64298;BME280;50639;53.270;7.956;2023-02-04T04:03:14;105328.66;;;4.58;100.00
64298;BME280;50639;53.270;7.956;2023-02-04T04:05:40;105084.47;;;4.38;100.00
64298;BME280;50639;53.270;7.956;2023-02-04T04:08:07;105208.63;;;4.42;100.00
64298;BME280;50639;53.270;7.956;2023-02-04T04:10:33;105307.88;;;4.47;100.00
64298;BME280;50639;53.270;7.956;2023-02-04T04:12:58;105236.06;;;4.44;100.00
64298;BME280;50639;53.270;7.956;2023-02-04T04:15:24;105277.78;;;4.45;100.00
64298;BME280;50639;53.270;7.956;2023-02-04T04:17:49;105260.91;;;4.45;100.00
64298;BME280;50639;53.270;7.956;2023-02-04T04:20:15;105294.66;;;4.46;100.00
64298;BME280;50639;53.270;7.956;2023-02-04T04:22:41;105323.88;;;4.47;100.00
64298;BME280;50639;53.270;7.956;2023-02-04T04:25:07;105291.03;;;4.47;100.00
64298;BME280;50639;53.270;7.956;2023-02-04T04:27:35;105235.22;;;4.44;100.00
64298;BME280;50639;53.270;7.956;2023-02-04T04:30:01;105241.47;;;4.43;100.00
64298;BME280;50639;53.270;7.956;2023-02-04T04:32:26;105248.59;;;4.42;100.00
64298;BME280;50639;53.270;7.956;2023-02-04T04:34:52;105204.34;;;4.40;100.00
64298;BME280;50639;53.270;7.956;2023-02-04T04:37:20;105141.53;;;4.34;100.00
64298;BME280;50639;53.270;7.956;2023-02-04T04:39:45;105125.75;;;4.31;100.00
64298;BME280;50639;53.270;7.956;2023-02-04T04:42:11;105071.81;;;4.26;100.00
64298;BME280;50639;53.270;7.956;2023-02-04T04:44:36;105011.66;;;4.22;100.00
64298;BME280;50639;53.270;7.956;2023-02-04T04:47:04;105020.69;;;4.19;100.00
64298;BME280;50639;53.270;7.956;2023-02-04T04:49:30;104942.13;;;4.11;100.00
64298;BME280;50639;53.270;7.956;2023-02-04T04:51:58;104918.31;;;4.08;100.00
64298;BME280;50639;53.270;7.956;2023-02-04T04:54:24;104956.47;;;4.08;100.00
64298;BME280;50639;53.270;7.956;2023-02-04T04:56:52;104971.69;;;4.06;100.00
64298;BME280;50639;53.270;7.956;2023-02-04T04:59:17;104986.75;;;4.07;100.00
64298;BME280;50639;53.270;7.956;2023-02-04T05:01:43;105014.22;;;4.08;100.00
64298;BME280;50639;53.270;7.956;2023-02-04T05:04:08;105001.75;;;4.08;100.00
64298;BME280;50639;53.270;7.956;2023-02-04T05:06:34;105034.59;;;4.09;100.00
64298;BME280;50639;53.270;7.956;2023-02-04T05:09:02;105033.72;;;4.08;100.00
64298;BME280;50639;53.270;7.956;2023-02-04T05:11:28;105086.91;;;4.10;100.00
64298;BME280;50639;53.270;7.956;2023-02-04T05:13:53;105089.41;;;4.13;100.00
64298;BME280;50639;53.270;7.956;2023-02-04T05:16:28;105078.84;;;4.11;100.00
64298;BME280;50639;53.270;7.956;2023-02-04T05:18:56;105076.19;;;4.11;100.00
64298;BME280;50639;53.270;7.956;2023-02-04T05:21:21;105085.88;;;4.12;100.00
64298;BME280;50639;53.270;7.956;2023-02-04T05:23:47;105113.41;;;4.13;100.00
64298;BME280;50639;53.270;7.956;2023-02-04T05:26:12;105093.00;;;4.12;100.00
64298;BME280;50639;53.270;7.956;2023-02-04T05:28:41;105084.25;;;4.10;100.00
64298;BME280;50639;53.270;7.956;2023-02-04T05:31:06;105085.19;;;4.09;100.00
64298;BME280;50639;53.270;7.956;2023-02-04T05:33:32;105057.78;;;4.07;100.00
64298;BME280;50639;53.270;7.956;2023-02-04T05:35:59;105008.44;;;4.00;100.00
64298;BME280;50639;53.270;7.956;2023-02-04T05:38:25;104958.03;;;3.97;100.00
64298;BME280;50639;53.270;7.956;2023-02-04T05:40:50;104837.13;;;3.84;100.00
64298;BME280;50639;53.270;7.956;2023-02-04T05:43:16;104851.56;;;3.80;100.00
64298;BME280;50639;53.270;7.956;2023-02-04T05:45:41;104912.72;;;3.81;100.00
64298;BME280;50639;53.270;7.956;2023-02-04T05:48:07;104839.38;;;3.76;100.00
64298;BME280;50639;53.270;7.956;2023-02-04T05:50:32;104806.06;;;3.69;100.00
64298;BME280;50639;53.270;7.956;2023-02-04T05:53:09;104770.16;;;3.60;100.00
64298;BME280;50639;53.270;7.956;2023-02-04T05:55:35;104887.81;;;3.67;100.00
64298;BME280;50639;53.270;7.956;2023-02-04T05:58:01;105045.31;;;3.75;100.00
64298;BME280;50639;53.270;7.956;2023-02-04T06:00:26;105047.81;;;3.78;100.00
64298;BME280;50639;53.270;7.956;2023-02-04T06:02:52;104992.06;;;3.75;100.00
64298;BME280;50639;53.270;7.956;2023-02-04T06:05:17;104968.16;;;3.73;100.00
64298;BME280;50639;53.270;7.956;2023-02-04T06:07:43;104991.28;;;3.73;100.00
64298;BME280;50639;53.270;7.956;2023-02-04T06:10:10;104958.56;;;3.71;100.00
64298;BME280;50639;53.270;7.956;2023-02-04T06:12:35;104771.38;;;3.55;100.00
64298;BME280;50639;53.270;7.956;2023-02-04T06:15:01;104690.88;;;3.35;100.00
64298;BME280;50639;53.270;7.956;2023-02-04T06:17:26;104805.25;;;3.35;100.00
64298;BME280;50639;53.270;7.956;2023-02-04T06:19:52;104937.03;;;3.43;100.00
64298;BME280;50639;53.270;7.956;2023-02-04T06:22:17;104838.06;;;3.36;100.00
64298;BME280;50639;53.270;7.956;2023-02-04T06:24:50;104864.75;;;3.34;100.00
64298;BME280;50639;53.270;7.956;2023-02-04T06:27:16;104862.22;;;3.31;100.00
64298;BME280;50639;53.270;7.956;2023-02-04T06:29:51;104917.19;;;3.32;100.00
64298;BME280;50639;53.270;7.956;2023-02-04T06:32:17;104942.81;;;3.33;100.00
64298;BME280;50639;53.270;7.956;2023-02-04T06:34:43;104978.19;;;3.35;100.00
64298;BME280;50639;53.270;7.956;2023-02-04T06:37:09;105049.78;;;3.40;100.00
64298;BME280;50639;53.270;7.956;2023-02-04T06:39:35;105065.66;;;3.42;100.00
64298;BME280;50639;53.270;7.956;2023-02-04T06:42:01;105137.22;;;3.48;100.00
64298;BME280;50639;53.270;7.956;2023-02-04T06:44:29;105131.88;;;3.48;100.00
64298;BME280;50639;53.270;7.956;2023-02-04T06:46:58;105127.53;;;3.47;100.00
64298;BME280;50639;53.270;7.956;2023-02-04T06:49:25;104973.81;;;3.34;100.00
64298;BME280;50639;53.270;7.956;2023-02-04T06:51:51;104927.19;;;3.27;100.00
64298;BME280;50639;53.270;7.956;2023-02-04T06:54:19;104953.09;;;3.24;100.00
64298;BME280;50639;53.270;7.956;2023-02-04T06:56:45;105006.19;;;3.25;100.00
64298;BME280;50639;53.270;7.956;2023-02-04T06:59:11;105031.88;;;3.26;100.00
64298;BME280;50639;53.270;7.956;2023-02-04T07:01:38;105011.53;;;3.25;100.00
64298;BME280;50639;53.270;7.956;2023-02-04T07:04:04;105101.84;;;3.28;100.00
64298;BME280;50639;53.270;7.956;2023-02-04T07:06:29;105119.41;;;3.31;100.00
64298;BME280;50639;53.270;7.956;2023-02-04T07:08:57;105066.47;;;3.26;100.00
64298;BME280;50639;53.270;7.956;2023-02-04T07:11:22;105060.28;;;3.26;100.00
64298;BME280;50639;53.270;7.956;2023-02-04T07:13:48;105143.44;;;3.29;100.00
64298;BME280;50639;53.270;7.956;2023-02-04T07:16:13;105163.81;;;3.30;100.00
64298;BME280;50639;53.270;7.956;2023-02-04T07:18:39;105118.72;;;3.27;100.00
64298;BME280;50639;53.270;7.956;2023-02-04T07:21:04;105182.44;;;3.30;100.00
64298;BME280;50639;53.270;7.956;2023-02-04T07:23:30;105480.66;;;3.45;100.00
64298;BME280;50639;53.270;7.956;2023-02-04T07:25:56;106007.75;;;3.89;100.00
64298;BME280;50639;53.270;7.956;2023-02-04T07:28:24;105623.78;;;3.78;100.00
64298;BME280;50639;53.270;7.956;2023-02-04T07:30:49;105416.50;;;3.69;100.00
64298;BME280;50639;53.270;7.956;2023-02-04T07:33:16;105375.88;;;3.66;100.00
64298;BME280;50639;53.270;7.956;2023-02-04T07:35:41;105299.91;;;3.59;100.00
64298;BME280;50639;53.270;7.956;2023-02-04T07:38:07;105231.94;;;3.52;100.00
64298;BME280;50639;53.270;7.956;2023-02-04T07:40:32;105266.59;;;3.50;100.00
64298;BME280;50639;53.270;7.956;2023-02-04T07:42:58;105242.78;;;3.47;100.00
64298;BME280;50639;53.270;7.956;2023-02-04T07:45:25;105281.78;;;3.48;100.00
64298;BME280;50639;53.270;7.956;2023-02-04T07:47:50;105280.03;;;3.47;100.00
64298;BME280;50639;53.270;7.956;2023-02-04T07:50:16;105295.16;;;3.47;100.00
64298;BME280;50639;53.270;7.956;2023-02-04T07:52:42;105313.84;;;3.45;100.00
64298;BME280;50639;53.270;7.956;2023-02-04T07:55:07;105487.31;;;3.55;100.00
64298;BME280;50639;53.270;7.956;2023-02-04T07:57:34;105565.16;;;3.60;100.00
64298;BME280;50639;53.270;7.956;2023-02-04T07:59:59;105595.22;;;3.62;100.00
64298;BME280;50639;53.270;7.956;2023-02-04T08:02:25;105640.38;;;3.65;100.00
64298;BME280;50639;53.270;7.956;2023-02-04T08:04:51;105810.28;;;3.77;100.00
64298;BME280;50639;53.270;7.956;2023-02-04T08:07:16;105910.22;;;3.85;100.00
64298;BME280;50639;53.270;7.956;2023-02-04T08:09:41;105962.34;;;3.92;100.00
64298;BME280;50639;53.270;7.956;2023-02-04T08:12:07;106137.63;;;4.06;100.00
64298;BME280;50639;53.270;7.956;2023-02-04T08:14:32;106210.16;;;4.14;100.00
64298;BME280;50639;53.270;7.956;2023-02-04T08:16:58;106255.22;;;4.21;100.00
64298;BME280;50639;53.270;7.956;2023-02-04T08:19:23;106345.50;;;4.31;100.00
64298;BME280;50639;53.270;7.956;2023-02-04T08:21:49;106412.91;;;4.36;100.00
64298;BME280;50639;53.270;7.956;2023-02-04T08:24:15;106363.06;;;4.38;100.00
64298;BME280;50639;53.270;7.956;2023-02-04T08:26:41;106536.88;;;4.49;100.00
64298;BME280;50639;53.270;7.956;2023-02-04T08:29:08;106617.56;;;4.55;100.00
64298;BME280;50639;53.270;7.956;2023-02-04T08:31:33;106707.09;;;4.64;100.00
64298;BME280;50639;53.270;7.956;2023-02-04T08:33:59;106764.72;;;4.69;100.00
64298;BME280;50639;53.270;7.956;2023-02-04T08:36:24;106747.75;;;4.72;100.00
64298;BME280;50639;53.270;7.956;2023-02-04T08:38:50;106839.16;;;4.78;100.00
64298;BME280;50639;53.270;7.956;2023-02-04T08:41:15;106830.16;;;4.82;100.00
64298;BME280;50639;53.270;7.956;2023-02-04T08:43:41;106886.91;;;4.87;100.00
64298;BME280;50639;53.270;7.956;2023-02-04T08:46:06;106928.63;;;4.91;100.00
64298;BME280;50639;53.270;7.956;2023-02-04T08:48:32;106967.69;;;4.94;100.00
64298;BME280;50639;53.270;7.956;2023-02-04T08:50:57;106981.00;;;4.95;100.00
64298;BME280;50639;53.270;7.956;2023-02-04T08:53:23;107086.72;;;5.01;100.00
64298;BME280;50639;53.270;7.956;2023-02-04T08:55:48;107207.53;;;5.09;100.00
64298;BME280;50639;53.270;7.956;2023-02-04T08:58:14;107270.59;;;5.15;100.00
64298;BME280;50639;53.270;7.956;2023-02-04T09:00:39;107281.19;;;5.19;100.00
64298;BME280;50639;53.270;7.956;2023-02-04T09:03:05;107294.41;;;5.24;100.00
64298;BME280;50639;53.270;7.956;2023-02-04T09:05:30;107416.22;;;5.31;100.00
64298;BME280;50639;53.270;7.956;2023-02-04T09:07:56;107290.75;;;5.28;100.00
64298;BME280;50639;53.270;7.956;2023-02-04T09:10:21;107372.53;;;5.33;100.00
64298;BME280;50639;53.270;7.956;2023-02-04T09:12:47;107529.03;;;5.42;100.00
64298;BME280;50639;53.270;7.956;2023-02-04T09:15:12;107541.50;;;5.43;100.00
64298;BME280;50639;53.270;7.956;2023-02-04T09:17:38;107692.75;;;5.50;100.00
64298;BME280;50639;53.270;7.956;2023-02-04T09:20:04;107777.28;;;5.55;100.00
64298;BME280;50639;53.270;7.956;2023-02-04T09:22:30;107795.91;;;5.58;100.00
64298;BME280;50639;53.270;7.956;2023-02-04T09:24:56;108019.34;;;5.70;100.00
64298;BME280;50639;53.270;7.956;2023-02-04T09:27:21;108192.09;;;5.81;100.00
64298;BME280;50639;53.270;7.956;2023-02-04T09:29:47;108290.06;;;5.90;100.00
64298;BME280;50639;53.270;7.956;2023-02-04T09:32:12;108314.06;;;5.95;100.00
64298;BME280;50639;53.270;7.956;2023-02-04T09:34:38;108472.69;;;6.03;100.00
64298;BME280;50639;53.270;7.956;2023-02-04T09:37:03;108519.00;;;6.09;100.00
64298;BME280;50639;53.270;7.956;2023-02-04T09:39:29;108479.75;;;6.11;100.00
64298;BME280;50639;53.270;7.956;2023-02-04T09:41:58;108559.06;;;6.17;100.00
64298;BME280;50639;53.270;7.956;2023-02-04T09:44:25;108662.50;;;6.22;100.00
64298;BME280;50639;53.270;7.956;2023-02-04T09:46:55;108722.22;;;6.27;100.00
64298;BME280;50639;53.270;7.956;2023-02-04T09:49:22;108718.66;;;6.28;100.00
64298;BME280;50639;53.270;7.956;2023-02-04T09:51:49;108868.50;;;6.36;100.00
64298;BME280;50639;53.270;7.956;2023-02-04T09:54:19;108884.56;;;6.36;100.00
64298;BME280;50639;53.270;7.956;2023-02-04T09:56:45;108885.44;;;6.38;100.00
64298;BME280;50639;53.270;7.956;2023-02-04T09:59:15;108874.72;;;6.39;100.00
64298;BME280;50639;53.270;7.956;2023-02-04T10:01:41;109042.47;;;6.46;100.00
64298;BME280;50639;53.270;7.956;2023-02-04T10:04:12;109145.97;;;6.53;100.00
64298;BME280;50639;53.270;7.956;2023-02-04T10:06:39;109283.44;;;6.61;100.00
64298;BME280;50639;53.270;7.956;2023-02-04T10:09:09;109194.19;;;6.59;100.00
64298;BME280;50639;53.270;7.956;2023-02-04T10:11:36;109337.91;;;6.66;100.00
64298;BME280;50639;53.270;7.956;2023-02-04T10:14:02;109187.94;;;6.62;100.00
64298;BME280;50639;53.270;7.956;2023-02-04T10:16:32;109518.28;;;6.73;100.00
64298;BME280;50639;53.270;7.956;2023-02-04T10:19:01;109294.16;;;6.64;100.00
64298;BME280;50639;53.270;7.956;2023-02-04T10:21:30;109192.41;;;6.58;100.00
64298;BME280;50639;53.270;7.956;2023-02-04T10:23:58;109180.78;;;6.59;100.00
64298;BME280;50639;53.270;7.956;2023-02-04T10:26:30;109178.09;;;6.59;100.00
64298;BME280;50639;53.270;7.956;2023-02-04T10:29:02;109214.72;;;6.59;100.00
64298;BME280;50639;53.270;7.956;2023-02-04T10:31:36;109077.28;;;6.52;100.00
64298;BME280;50639;53.270;7.956;2023-02-04T10:36:28;109274.50;;;6.59;100.00
64298;BME280;50639;53.270;7.956;2023-02-04T10:41:43;109232.56;;;6.57;100.00
64298;BME280;50639;53.270;7.956;2023-02-04T10:44:11;109454.84;;;6.64;100.00
64298;BME280;50639;53.270;7.956;2023-02-04T10:46:40;109670.94;;;6.71;100.00
64298;BME280;50639;53.270;7.956;2023-02-04T10:49:23;109824.59;;;6.77;100.00
64298;BME280;50639;53.270;7.956;2023-02-04T10:51:50;109891.56;;;6.80;100.00
64298;BME280;50639;53.270;7.956;2023-02-04T10:54:19;109885.34;;;6.81;100.00
64298;BME280;50639;53.270;7.956;2023-02-04T10:57:20;110047.06;;;6.86;100.00
64298;BME280;50639;53.270;7.956;2023-02-04T10:59:47;109967.50;;;6.79;100.00
64298;BME280;50639;53.270;7.956;2023-02-04T11:05:19;110707.50;;;7.00;100.00
64298;BME280;50639;53.270;7.956;2023-02-04T11:07:46;110579.69;;;6.97;100.00
64298;BME280;50639;53.270;7.956;2023-02-04T11:10:18;110236.41;;;6.85;100.00
64298;BME280;50639;53.270;7.956;2023-02-04T11:12:46;110097.91;;;6.81;100.00
64298;BME280;50639;53.270;7.956;2023-02-04T11:18:03;110537.56;;;6.92;100.00
64298;BME280;50639;53.270;7.956;2023-02-04T11:20:31;110755.75;;;7.00;100.00
64298;BME280;50639;53.270;7.956;2023-02-04T11:26:00;111052.81;;;7.13;100.00
64298;BME280;50639;53.270;7.956;2023-02-04T11:28:26;111336.53;;;7.24;100.00
64298;BME280;50639;53.270;7.956;2023-02-04T11:30:59;111416.31;;;7.30;100.00
64298;BME280;50639;53.270;7.956;2023-02-04T11:33:36;111493.44;;;7.37;100.00
64298;BME280;50639;53.270;7.956;2023-02-04T11:36:04;111599.16;;;7.42;100.00
64298;BME280;50639;53.270;7.956;2023-02-04T11:38:30;111704.03;;;7.48;100.00
64298;BME280;50639;53.270;7.956;2023-02-04T11:40:57;111851.78;;;7.52;100.00
64298;BME280;50639;53.270;7.956;2023-02-04T11:43:23;111915.31;;;7.52;100.00
64298;BME280;50639;53.270;7.956;2023-02-04T11:46:00;112162.59;;;7.61;100.00
64298;BME280;50639;53.270;7.956;2023-02-04T11:48:26;112049.88;;;7.61;100.00
64298;BME280;50639;53.270;7.956;2023-02-04T11:50:56;112254.31;;;7.70;100.00
64298;BME280;50639;53.270;7.956;2023-02-04T11:53:30;112518.72;;;7.78;100.00
64298;BME280;50639;53.270;7.956;2023-02-04T11:55:56;111946.09;;;7.62;100.00
64298;BME280;50639;53.270;7.956;2023-02-04T11:58:22;111807.22;;;7.56;100.00
64298;BME280;50639;53.270;7.956;2023-02-04T12:00:53;112027.56;;;7.62;100.00
64298;BME280;50639;53.270;7.956;2023-02-04T12:03:45;112574.56;;;7.85;100.00
64298;BME280;50639;53.270;7.956;2023-02-04T12:06:30;113114.81;;;8.07;100.00
64298;BME280;50639;53.270;7.956;2023-02-04T12:09:27;113253.44;;;8.18;100.00
64298;BME280;50639;53.270;7.956;2023-02-04T12:12:01;112692.78;;;8.03;100.00
64298;BME280;50639;53.270;7.956;2023-02-04T12:14:30;112128.84;;;7.87;100.00
64298;BME280;50639;53.270;7.956;2023-02-04T12:16:56;112014.16;;;7.84;100.00
64298;BME280;50639;53.270;7.956;2023-02-04T12:19:25;111855.44;;;7.77;100.00
64298;BME280;50639;53.270;7.956;2023-02-04T12:21:51;111926.38;;;7.83;100.00
64298;BME280;50639;53.270;7.956;2023-02-04T12:24:17;111791.13;;;7.80;100.00
64298;BME280;50639;53.270;7.956;2023-02-04T12:26:43;111829.72;;;7.83;100.00
64298;BME280;50639;53.270;7.956;2023-02-04T12:29:08;111946.28;;;7.88;100.00
64298;BME280;50639;53.270;7.956;2023-02-04T12:31:34;112217.06;;;7.98;100.00
64298;BME280;50639;53.270;7.956;2023-02-04T12:34:00;112602.91;;;8.15;100.00
64298;BME280;50639;53.270;7.956;2023-02-04T12:36:26;112512.38;;;8.13;100.00
64298;BME280;50639;53.270;7.956;2023-02-04T12:38:54;112059.69;;;8.03;100.00
64298;BME280;50639;53.270;7.956;2023-02-04T12:41:19;112027.44;;;8.03;100.00
64298;BME280;50639;53.270;7.956;2023-02-04T12:43:45;111820.41;;;7.97;100.00
64298;BME280;50639;53.270;7.956;2023-02-04T12:46:14;111465.59;;;7.87;100.00
64298;BME280;50639;53.270;7.956;2023-02-04T12:48:40;111311.50;;;7.82;100.00
64298;BME280;50639;53.270;7.956;2023-02-04T12:51:06;111474.56;;;7.87;100.00
64298;BME280;50639;53.270;7.956;2023-02-04T12:53:32;110972.09;;;7.71;100.00
64298;BME280;50639;53.270;7.956;2023-02-04T12:55:57;111081.31;;;7.73;100.00
64298;BME280;50639;53.270;7.956;2023-02-04T12:58:23;111781.00;;;7.96;100.00
64298;BME280;50639;53.270;7.956;2023-02-04T13:00:48;112018.66;;;8.07;100.00
64298;BME280;50639;53.270;7.956;2023-02-04T13:03:15;112392.72;;;8.21;100.00
64298;BME280;50639;53.270;7.956;2023-02-04T13:05:40;111889.63;;;8.04;100.00
64298;BME280;50639;53.270;7.956;2023-02-04T13:08:06;111696.06;;;8.00;100.00